createdAt,value
2024-03-12T00:02:21.461Z,9.26
2024-03-12T00:04:47.854Z,9.28
2024-03-12T00:07:14.658Z,8.93
2024-03-12T00:09:41.172Z,9.01
2024-03-12T00:12:07.749Z,8.53
2024-03-12T00:14:34.817Z,8.31
2024-03-12T00:17:01.268Z,8.56
2024-03-12T00:19:28.038Z,8.87
2024-03-12T00:21:54.491Z,9.25
2024-03-12T00:24:20.885Z,9.25
2024-03-12T00:26:48.981Z,8.90
2024-03-12T00:29:16.563Z,8.64
2024-03-12T00:31:42.940Z,8.93
2024-03-12T00:34:11.811Z,8.94
2024-03-12T00:36:38.330Z,9.08
2024-03-12T00:39:04.718Z,8.92
2024-03-12T00:41:31.248Z,8.41
2024-03-12T00:43:57.662Z,7.71
2024-03-12T00:46:25.872Z,6.88
2024-03-12T00:48:52.254Z,6.54
2024-03-12T00:51:19.453Z,6.07
2024-03-12T00:53:45.857Z,5.80
2024-03-12T00:56:16.411Z,5.87
2024-03-12T00:58:43.265Z,5.86
2024-03-12T01:01:15.959Z,6.57
2024-03-12T01:03:43.677Z,7.22
2024-03-12T01:06:12.104Z,7.84
2024-03-12T01:08:38.537Z,6.97
2024-03-12T01:11:04.990Z,7.75
2024-03-12T01:13:31.423Z,8.59
2024-03-12T01:15:59.011Z,8.43
2024-03-12T01:18:25.469Z,8.34
2024-03-12T01:20:51.831Z,8.49
2024-03-12T01:23:18.179Z,7.70
2024-03-12T01:25:44.543Z,8.77
2024-03-12T01:28:11.654Z,8.56
2024-03-12T01:30:38.660Z,7.55
2024-03-12T01:33:06.879Z,7.72
2024-03-12T01:35:39.025Z,7.75
2024-03-12T01:38:05.524Z,8.25
2024-03-12T01:40:32.070Z,8.33
2024-03-12T01:43:02.497Z,7.24
2024-03-12T01:45:29.169Z,6.90
2024-03-12T01:47:56.106Z,7.79
2024-03-12T01:50:23.173Z,8.63
2024-03-12T01:52:49.635Z,8.46
2024-03-12T01:55:17.646Z,8.08
2024-03-12T01:57:44.291Z,9.06
2024-03-12T02:00:16.933Z,8.88
2024-03-12T02:02:43.554Z,8.84
2024-03-12T02:05:11.305Z,8.77
2024-03-12T02:07:48.036Z,8.49
2024-03-12T02:10:14.636Z,8.52
2024-03-12T02:12:41.504Z,7.82
2024-03-12T02:15:09.221Z,8.25
2024-03-12T02:17:35.798Z,8.78
2024-03-12T02:20:02.281Z,8.02
2024-03-12T02:22:32.793Z,7.35
2024-03-12T02:25:00.216Z,6.80
2024-03-12T02:27:27.016Z,7.66
2024-03-12T02:29:53.829Z,7.55
2024-03-12T02:32:20.218Z,7.53
2024-03-12T02:34:46.557Z,7.08
2024-03-12T02:37:12.996Z,6.29
2024-03-12T02:39:39.542Z,6.37
2024-03-12T02:42:06.296Z,6.40
2024-03-12T02:44:32.715Z,6.49
2024-03-12T02:46:59.066Z,7.13
2024-03-12T02:49:25.512Z,7.44
2024-03-12T02:51:52.985Z,8.06
2024-03-12T02:54:19.444Z,8.30
2024-03-12T02:56:45.860Z,8.53
2024-03-12T02:59:13.279Z,8.07
2024-03-12T03:01:39.981Z,8.38
2024-03-12T03:04:06.539Z,8.65
2024-03-12T03:06:32.992Z,8.68
2024-03-12T03:08:59.770Z,8.02
2024-03-12T03:11:26.457Z,6.35
2024-03-12T03:13:52.828Z,7.07
2024-03-12T03:16:21.425Z,7.54
2024-03-12T03:18:47.979Z,6.67
2024-03-12T03:21:15.307Z,6.66
2024-03-12T03:23:43.314Z,6.32
2024-03-12T03:26:09.840Z,5.66
2024-03-12T03:28:36.183Z,6.03
2024-03-12T03:31:02.716Z,5.95
2024-03-12T03:33:29.239Z,5.83
2024-03-12T03:35:55.712Z,5.28
2024-03-12T03:38:22.159Z,6.04
2024-03-12T03:40:48.769Z,6.54
2024-03-12T03:43:15.160Z,6.84
2024-03-12T03:45:41.560Z,6.87
2024-03-12T03:48:08.127Z,7.52
2024-03-12T03:50:34.530Z,7.88
2024-03-12T03:53:00.906Z,7.52
2024-03-12T03:55:27.275Z,7.12
2024-03-12T03:57:53.848Z,6.67
2024-03-12T04:00:24.639Z,6.40
2024-03-12T04:02:51.180Z,6.38
2024-03-12T04:05:17.702Z,5.75
2024-03-12T04:07:45.322Z,5.52
2024-03-12T04:10:12.085Z,5.75
2024-03-12T04:12:40.509Z,6.43
2024-03-12T04:15:07.517Z,7.49
2024-03-12T04:17:33.942Z,8.14
2024-03-12T04:20:00.390Z,8.40
2024-03-12T04:22:27.836Z,7.95
2024-03-12T04:24:54.252Z,7.61
2024-03-12T04:27:21.951Z,7.79
2024-03-12T04:29:48.674Z,7.73
2024-03-12T04:32:16.304Z,6.77
2024-03-12T04:34:42.677Z,7.43
2024-03-12T04:37:09.298Z,8.50
2024-03-12T04:39:37.106Z,7.50
2024-03-12T04:42:06.047Z,7.55
2024-03-12T04:44:35.171Z,6.92
2024-03-12T04:47:01.601Z,7.53
2024-03-12T04:49:28.167Z,8.42
2024-03-12T04:51:54.648Z,8.68
2024-03-12T04:54:21.174Z,7.76
2024-03-12T04:56:47.815Z,7.74
2024-03-12T04:59:16.101Z,7.52
2024-03-12T05:01:46.036Z,8.27
2024-03-12T05:04:18.563Z,8.80
2024-03-12T05:06:49.142Z,9.11
2024-03-12T05:09:19.011Z,9.22
2024-03-12T05:11:51.557Z,8.41
2024-03-12T05:14:17.979Z,6.88
2024-03-12T05:16:44.345Z,6.49
2024-03-12T05:19:12.259Z,6.26
2024-03-12T05:21:39.005Z,6.10
2024-03-12T05:24:05.815Z,5.85
2024-03-12T05:26:33.156Z,6.13
2024-03-12T05:28:59.622Z,6.96
2024-03-12T05:31:33.757Z,6.78
2024-03-12T05:34:03.693Z,7.55
2024-03-12T05:36:42.091Z,7.88
2024-03-12T05:39:49.126Z,7.77
2024-03-12T05:42:34.311Z,7.32
2024-03-12T05:45:19.120Z,7.70
2024-03-12T05:48:03.977Z,8.38
2024-03-12T05:50:30.391Z,7.33
2024-03-12T05:52:57.640Z,7.86
2024-03-12T05:55:23.996Z,7.51
2024-03-12T05:57:50.397Z,7.70
2024-03-12T06:00:17.160Z,8.40
2024-03-12T06:02:43.886Z,8.82
2024-03-12T06:05:13.768Z,7.94
2024-03-12T06:07:41.240Z,7.87
2024-03-12T06:10:08.634Z,8.12
2024-03-12T06:12:35.042Z,8.35
2024-03-12T06:15:01.383Z,8.65
2024-03-12T06:17:27.829Z,8.69
2024-03-12T06:19:54.318Z,7.70
2024-03-12T06:22:20.671Z,8.13
2024-03-12T06:24:49.273Z,8.54
2024-03-12T06:27:17.245Z,8.88
2024-03-12T06:29:44.943Z,8.81
2024-03-12T06:32:11.649Z,8.96
2024-03-12T06:34:37.997Z,9.02
2024-03-12T06:37:04.472Z,8.73
2024-03-12T06:39:34.015Z,8.15
2024-03-12T06:42:04.345Z,7.80
2024-03-12T06:44:33.114Z,8.19
2024-03-12T06:46:59.536Z,8.94
2024-03-12T06:49:25.868Z,8.57
2024-03-12T06:51:55.771Z,8.65
2024-03-12T06:54:22.314Z,8.31
2024-03-12T06:56:48.685Z,9.21
2024-03-12T06:59:17.992Z,9.32
2024-03-12T07:01:44.747Z,9.37
2024-03-12T07:04:11.860Z,8.40
2024-03-12T07:06:39.044Z,8.17
2024-03-12T07:09:13.538Z,8.85
2024-03-12T07:11:41.737Z,9.05
2024-03-12T07:14:24.193Z,9.39
2024-03-12T07:16:53.219Z,9.37
2024-03-12T07:19:20.889Z,8.09
2024-03-12T07:21:47.288Z,7.86
2024-03-12T07:24:13.714Z,8.15
2024-03-12T07:26:40.168Z,8.56
2024-03-12T07:29:10.680Z,8.22
2024-03-12T07:31:37.038Z,8.79
2024-03-12T07:34:03.651Z,9.28
2024-03-12T07:36:33.002Z,8.16
2024-03-12T07:38:59.439Z,8.83
2024-03-12T07:41:25.987Z,8.64
2024-03-12T07:43:52.323Z,8.35
2024-03-12T07:46:18.977Z,8.69
2024-03-12T07:48:45.590Z,8.79
2024-03-12T07:51:12.010Z,8.45
2024-03-12T07:53:38.369Z,8.47
2024-03-12T07:56:06.221Z,8.66
2024-03-12T07:58:32.572Z,8.65
2024-03-12T08:01:00.225Z,7.72
2024-03-12T08:03:27.307Z,7.93
2024-03-12T08:05:54.314Z,7.60
2024-03-12T08:08:20.707Z,7.84
2024-03-12T08:10:47.060Z,8.17
2024-03-12T08:13:13.539Z,8.35
2024-03-12T08:15:40.213Z,8.60
2024-03-12T08:18:13.467Z,9.26
2024-03-12T08:20:47.042Z,9.60
2024-03-12T08:23:15.266Z,9.05
2024-03-12T08:25:50.957Z,8.33
2024-03-12T08:28:22.808Z,8.10
2024-03-12T08:30:49.230Z,8.36
2024-03-12T08:33:18.686Z,8.86
2024-03-12T08:35:45.154Z,8.72
2024-03-12T08:38:11.539Z,9.02
2024-03-12T08:40:37.904Z,9.10
2024-03-12T08:43:06.312Z,9.72
2024-03-12T08:45:36.809Z,9.56
2024-03-12T08:48:04.735Z,9.65
2024-03-12T08:50:31.157Z,9.84
2024-03-12T08:52:58.844Z,9.22
2024-03-12T08:55:25.216Z,9.64
2024-03-12T08:57:52.495Z,8.97
2024-03-12T09:00:19.852Z,10.01
2024-03-12T09:02:46.591Z,9.71
2024-03-12T09:05:13.419Z,9.44
2024-03-12T09:07:39.793Z,9.91
2024-03-12T09:10:13.779Z,9.07
2024-03-12T09:12:41.878Z,9.90
2024-03-12T09:15:11.540Z,9.96
2024-03-12T09:17:38.597Z,8.69
2024-03-12T09:20:11.848Z,9.64
2024-03-12T09:22:38.744Z,9.92
2024-03-12T09:25:06.288Z,9.24
2024-03-12T09:27:32.963Z,8.79
2024-03-12T09:29:59.389Z,8.79
2024-03-12T09:32:25.993Z,8.48
2024-03-12T09:34:55.028Z,8.02
2024-03-12T09:37:22.044Z,7.88
2024-03-12T09:39:52.356Z,8.27
2024-03-12T09:42:19.234Z,8.90
2024-03-12T09:44:45.722Z,8.89
2024-03-12T09:47:12.707Z,8.26
2024-03-12T09:49:41.424Z,7.90
2024-03-12T09:52:07.989Z,8.19
2024-03-12T09:54:35.520Z,8.36
2024-03-12T09:57:02.517Z,8.10
2024-03-12T09:59:28.873Z,8.51
2024-03-12T10:01:55.303Z,8.95
2024-03-12T10:04:21.741Z,8.52
2024-03-12T10:06:50.314Z,9.19
2024-03-12T10:09:18.842Z,8.03
2024-03-12T10:11:46.164Z,8.71
2024-03-12T10:14:13.667Z,8.73
2024-03-12T10:16:40.109Z,8.38
2024-03-12T10:19:10.758Z,8.82
2024-03-12T10:21:41.561Z,9.09
2024-03-12T10:24:11.472Z,9.25
2024-03-12T10:26:37.905Z,9.63
2024-03-12T10:29:11.093Z,9.20
2024-03-12T10:31:40.876Z,9.29
2024-03-12T10:34:07.527Z,9.96
2024-03-12T10:36:34.494Z,10.08
2024-03-12T10:39:01.243Z,10.26
2024-03-12T10:41:27.649Z,9.87
2024-03-12T10:43:56.372Z,9.48
2024-03-12T10:46:22.966Z,9.47
2024-03-12T10:48:51.429Z,9.39
2024-03-12T10:51:18.657Z,10.06
2024-03-12T10:53:47.738Z,10.22
2024-03-12T10:56:16.062Z,11.00
2024-03-12T10:58:42.766Z,11.61
2024-03-12T11:01:11.439Z,11.67
2024-03-12T11:03:38.808Z,11.90
2024-03-12T11:06:05.226Z,12.04
2024-03-12T11:08:31.615Z,9.87
2024-03-12T11:10:58.349Z,9.96
2024-03-12T11:13:25.038Z,10.75
2024-03-12T11:15:52.446Z,11.18
2024-03-12T11:18:35.615Z,10.61
2024-03-12T11:21:04.955Z,11.27
2024-03-12T11:23:31.791Z,10.48
2024-03-12T11:25:58.440Z,10.22
2024-03-12T11:28:26.070Z,9.99
2024-03-12T11:30:55.572Z,10.15
2024-03-12T11:33:41.846Z,9.63
2024-03-12T11:36:11.739Z,9.54
2024-03-12T11:38:38.602Z,9.82
2024-03-12T11:41:05.062Z,9.59
2024-03-12T11:43:39.010Z,9.47
2024-03-12T11:46:08.676Z,10.26
2024-03-12T11:48:35.279Z,10.21
2024-03-12T11:51:02.209Z,9.69
2024-03-12T11:53:32.186Z,9.75
2024-03-12T11:56:09.627Z,10.08
2024-03-12T11:58:42.306Z,9.92
2024-03-12T12:01:10.391Z,10.38
2024-03-12T12:03:39.667Z,9.97
2024-03-12T12:06:07.409Z,10.30
2024-03-12T12:08:39.593Z,10.18
2024-03-12T12:11:12.452Z,10.02
2024-03-12T12:13:42.283Z,9.75
2024-03-12T12:16:11.674Z,10.43
2024-03-12T12:18:39.875Z,10.57
2024-03-12T12:21:16.094Z,10.46
2024-03-12T12:23:45.714Z,9.62
2024-03-12T12:26:15.597Z,10.29
2024-03-12T12:28:42.487Z,10.16
2024-03-12T12:31:12.971Z,10.13
2024-03-12T12:33:39.995Z,10.22
2024-03-12T12:36:09.291Z,9.88
2024-03-12T12:38:35.992Z,10.04
2024-03-12T12:41:02.954Z,9.67
2024-03-12T12:43:33.917Z,10.13
2024-03-12T12:46:00.578Z,9.99
2024-03-12T12:48:28.230Z,9.97
2024-03-12T12:50:55.666Z,9.77
2024-03-12T12:53:22.485Z,9.37
2024-03-12T12:55:58.425Z,10.12
2024-03-12T12:58:26.121Z,10.12
2024-03-12T13:01:05.582Z,10.44
2024-03-12T13:03:36.156Z,10.52
2024-03-12T13:06:13.539Z,10.26
2024-03-12T13:08:46.780Z,11.08
2024-03-12T13:11:13.824Z,10.73
2024-03-12T13:13:41.993Z,10.81
2024-03-12T13:16:09.742Z,10.84
2024-03-12T13:18:41.208Z,9.52
2024-03-12T13:21:08.257Z,9.51
2024-03-12T13:23:36.472Z,9.29
2024-03-12T13:26:02.918Z,9.16
2024-03-12T13:28:29.776Z,9.16
2024-03-12T13:30:57.384Z,9.13
2024-03-12T13:33:23.773Z,9.23
2024-03-12T13:35:52.812Z,9.26
2024-03-12T13:38:20.908Z,9.26
2024-03-12T13:40:47.373Z,9.50
2024-03-12T13:43:13.935Z,9.35
2024-03-12T13:45:42.644Z,10.04
2024-03-12T13:48:09.111Z,9.92
2024-03-12T13:50:35.533Z,9.78
2024-03-12T13:53:04.301Z,9.53
2024-03-12T13:55:30.683Z,10.31
2024-03-12T13:58:00.221Z,10.53
2024-03-12T14:00:27.842Z,10.40
2024-03-12T14:02:54.621Z,10.38
2024-03-12T14:05:22.027Z,10.62
2024-03-12T14:07:49.148Z,10.91
2024-03-12T14:10:15.587Z,11.34
2024-03-12T14:12:42.877Z,10.83
2024-03-12T14:15:10.009Z,10.13
2024-03-12T14:17:36.385Z,10.09
2024-03-12T14:20:11.971Z,9.96
2024-03-12T14:22:39.405Z,10.00
2024-03-12T14:25:08.224Z,9.48
2024-03-12T14:30:03.072Z,9.82
2024-03-12T14:32:29.438Z,10.21
2024-03-12T14:34:55.880Z,10.17
2024-03-12T14:37:22.277Z,9.79
2024-03-12T14:39:48.716Z,10.23
2024-03-12T14:42:15.113Z,10.10
2024-03-12T14:44:41.610Z,9.97
2024-03-12T14:47:10.863Z,10.34
2024-03-12T14:49:38.737Z,9.65
2024-03-12T14:52:05.988Z,9.49
2024-03-12T14:54:32.557Z,9.53
2024-03-12T14:56:59.020Z,9.81
2024-03-12T14:59:25.348Z,9.50
2024-03-12T15:01:51.784Z,9.90
2024-03-12T15:04:19.798Z,10.25
2024-03-12T15:06:46.295Z,9.85
2024-03-12T15:09:14.821Z,10.28
2024-03-12T15:11:42.574Z,9.47
2024-03-12T15:14:10.749Z,9.49
2024-03-12T15:16:37.899Z,9.51
2024-03-12T15:19:07.223Z,9.50
2024-03-12T15:21:33.770Z,9.47
2024-03-12T15:24:00.443Z,9.63
2024-03-12T15:26:26.830Z,9.59
2024-03-12T15:28:53.200Z,9.71
2024-03-12T15:31:19.619Z,9.38
2024-03-12T15:33:46.047Z,9.35
2024-03-12T15:36:12.379Z,9.42
2024-03-12T15:38:38.726Z,9.58
2024-03-12T15:41:07.189Z,9.79
2024-03-12T15:43:33.581Z,10.24
2024-03-12T15:46:00.099Z,10.18
2024-03-12T15:48:26.524Z,9.93
2024-03-12T15:50:53.146Z,9.60
2024-03-12T15:53:19.549Z,9.43
2024-03-12T15:55:47.926Z,9.32
2024-03-12T15:58:14.468Z,9.59
2024-03-12T16:00:43.112Z,9.33
2024-03-12T16:03:11.743Z,9.21
2024-03-12T16:05:38.520Z,9.46
2024-03-12T16:08:07.872Z,9.30
2024-03-12T16:10:34.937Z,9.24
2024-03-12T16:13:02.826Z,9.39
2024-03-12T16:15:29.185Z,9.72
2024-03-12T16:17:56.254Z,9.97
2024-03-12T16:20:23.105Z,11.05
2024-03-12T16:22:49.505Z,11.15
2024-03-12T16:25:15.868Z,10.48
2024-03-12T16:27:44.306Z,11.19
2024-03-12T16:30:12.513Z,11.99
2024-03-12T16:32:41.321Z,12.42
2024-03-12T16:35:10.830Z,12.36
2024-03-12T16:37:40.307Z,12.20
2024-03-12T16:40:11.884Z,12.12
2024-03-12T16:42:39.108Z,11.57
2024-03-12T16:45:06.526Z,11.70
2024-03-12T16:47:33.158Z,11.59
2024-03-12T16:50:05.611Z,11.77
2024-03-12T16:52:31.962Z,11.89
2024-03-12T16:54:58.406Z,12.20
2024-03-12T16:57:24.914Z,11.45
2024-03-12T16:59:56.952Z,11.84
2024-03-12T17:02:27.561Z,11.77
2024-03-12T17:04:57.746Z,11.17
2024-03-12T17:07:24.508Z,10.74
2024-03-12T17:09:51.150Z,10.25
2024-03-12T17:12:18.831Z,10.66
2024-03-12T17:14:47.484Z,11.81
2024-03-12T17:17:13.824Z,11.67
2024-03-12T17:19:40.228Z,12.12
2024-03-12T17:22:07.302Z,12.09
2024-03-12T17:24:35.217Z,12.23
2024-03-12T17:27:01.742Z,11.59
2024-03-12T17:29:28.181Z,11.25
2024-03-12T17:31:59.339Z,11.07
2024-03-12T17:34:25.998Z,11.20
2024-03-12T17:36:54.079Z,11.28
2024-03-12T17:39:21.097Z,11.30
2024-03-12T17:41:47.708Z,10.60
2024-03-12T17:44:14.378Z,10.81
2024-03-12T17:46:44.216Z,11.21
2024-03-12T17:49:17.362Z,10.94
2024-03-12T17:51:45.149Z,11.19
2024-03-12T17:54:17.321Z,10.75
2024-03-12T17:56:48.052Z,10.81
2024-03-12T17:59:19.929Z,11.13
2024-03-12T18:01:47.006Z,10.90
2024-03-12T18:04:14.181Z,10.71
2024-03-12T18:06:43.778Z,9.48
2024-03-12T18:09:13.489Z,10.08
2024-03-12T18:11:40.272Z,9.54
2024-03-12T18:14:07.391Z,10.41
2024-03-12T18:16:38.599Z,10.86
2024-03-12T18:19:06.740Z,10.44
2024-03-12T18:21:33.741Z,10.27
2024-03-12T18:24:01.520Z,10.80
2024-03-12T18:26:28.587Z,10.84
2024-03-12T18:28:57.623Z,10.33
2024-03-12T18:31:24.357Z,10.82
2024-03-12T18:33:50.922Z,10.63
2024-03-12T18:36:18.601Z,11.05
2024-03-12T18:38:45.023Z,11.29
2024-03-12T18:41:13.377Z,11.16
2024-03-12T18:43:40.698Z,10.38
2024-03-12T18:46:07.199Z,10.70
2024-03-12T18:48:33.694Z,10.95
2024-03-12T18:51:00.203Z,10.92
2024-03-12T18:53:26.859Z,11.28
2024-03-12T18:55:53.975Z,11.03
2024-03-12T18:58:20.583Z,10.93
2024-03-12T19:00:47.180Z,10.68
2024-03-12T19:03:15.723Z,10.35
2024-03-12T19:05:42.481Z,10.15
2024-03-12T19:08:09.771Z,10.60
2024-03-12T19:10:37.102Z,11.02
2024-03-12T19:13:07.398Z,11.30
2024-03-12T19:15:38.033Z,11.03
2024-03-12T19:18:07.794Z,10.67
2024-03-12T19:20:34.354Z,11.20
2024-03-12T19:23:00.902Z,11.11
2024-03-12T19:25:27.682Z,11.30
2024-03-12T19:27:54.329Z,11.44
2024-03-12T19:30:21.064Z,11.32
2024-03-12T19:32:49.106Z,11.22
2024-03-12T19:35:15.644Z,11.19
2024-03-12T19:37:42.915Z,10.90
2024-03-12T19:40:21.038Z,10.56
2024-03-12T19:42:49.439Z,10.61
2024-03-12T19:45:19.830Z,10.65
2024-03-12T19:47:49.950Z,10.93
2024-03-12T19:50:26.086Z,11.06
2024-03-12T19:52:54.631Z,10.60
2024-03-12T19:55:25.441Z,10.67
2024-03-12T19:57:56.146Z,10.93
2024-03-12T20:00:24.057Z,10.96
2024-03-12T20:02:50.616Z,10.81
2024-03-12T20:05:17.066Z,10.93
2024-03-12T20:07:46.945Z,11.12
2024-03-12T20:10:14.662Z,11.25
2024-03-12T20:12:41.213Z,11.10
2024-03-12T20:15:14.254Z,10.92
2024-03-12T20:17:42.057Z,10.94
2024-03-12T20:20:15.605Z,11.09
2024-03-12T20:22:42.191Z,10.93
2024-03-12T20:25:09.649Z,10.48
2024-03-12T20:27:39.394Z,10.65
2024-03-12T20:30:06.704Z,10.58
2024-03-12T20:32:33.297Z,10.54
2024-03-12T20:34:59.729Z,11.04
2024-03-12T20:37:26.202Z,11.09
2024-03-12T20:39:52.740Z,10.92
2024-03-12T20:42:19.929Z,11.09
2024-03-12T20:44:46.321Z,10.92
2024-03-12T20:47:14.517Z,11.03
2024-03-12T20:49:44.595Z,11.24
2024-03-12T20:52:12.482Z,10.52
2024-03-12T20:54:39.832Z,10.69
2024-03-12T20:57:06.633Z,10.79
2024-03-12T20:59:32.977Z,11.11
2024-03-12T21:01:59.435Z,11.04
2024-03-12T21:04:25.929Z,11.00
2024-03-12T21:06:52.370Z,10.73
2024-03-12T21:09:25.062Z,10.76
2024-03-12T21:11:56.176Z,10.42
2024-03-12T21:14:23.118Z,10.41
2024-03-12T21:16:49.621Z,10.33
2024-03-12T21:19:16.366Z,10.32
2024-03-12T21:21:44.549Z,10.53
2024-03-12T21:24:10.926Z,10.38
2024-03-12T21:26:38.865Z,10.72
2024-03-12T21:29:07.514Z,10.08
2024-03-12T21:31:34.266Z,10.72
2024-03-12T21:34:01.904Z,10.43
2024-03-12T21:36:28.417Z,10.61
2024-03-12T21:38:54.753Z,9.70
2024-03-12T21:41:21.112Z,9.79
2024-03-12T21:43:47.490Z,9.93
2024-03-12T21:46:13.872Z,10.44
2024-03-12T21:48:40.283Z,10.59
2024-03-12T21:51:08.418Z,10.08
2024-03-12T21:53:35.405Z,9.39
2024-03-12T21:56:02.293Z,8.64
2024-03-12T21:58:28.721Z,8.46
2024-03-12T22:00:55.129Z,9.07
2024-03-12T22:03:21.847Z,8.93
2024-03-12T22:05:48.216Z,9.76
2024-03-12T22:08:14.589Z,9.54
2024-03-12T22:10:41.060Z,10.37
2024-03-12T22:13:08.200Z,9.93
2024-03-12T22:15:37.272Z,10.46
2024-03-12T22:18:03.759Z,10.83
2024-03-12T22:20:30.143Z,9.28
2024-03-12T22:22:56.468Z,9.59
2024-03-12T22:25:23.521Z,9.69
2024-03-12T22:27:50.689Z,10.08
2024-03-12T22:30:21.182Z,10.09
2024-03-12T22:32:48.771Z,9.96
2024-03-12T22:35:16.282Z,9.75
2024-03-12T22:37:44.487Z,9.55
2024-03-12T22:40:13.293Z,9.57
2024-03-12T22:42:39.882Z,9.95
2024-03-12T22:45:07.296Z,10.11
2024-03-12T22:47:33.836Z,10.19
2024-03-12T22:50:00.504Z,10.15
2024-03-12T22:52:27.602Z,9.42
2024-03-12T22:54:55.493Z,9.95
2024-03-12T22:57:24.982Z,10.25
2024-03-12T22:59:54.620Z,9.41
2024-03-12T23:02:21.558Z,9.89
2024-03-12T23:04:54.667Z,9.34
2024-03-12T23:07:21.125Z,9.83
2024-03-12T23:09:49.172Z,9.99
2024-03-12T23:12:16.188Z,9.69
2024-03-12T23:14:42.609Z,9.66
2024-03-12T23:17:09.119Z,10.02
2024-03-12T23:19:40.776Z,10.37
2024-03-12T23:22:07.594Z,9.93
2024-03-12T23:24:34.099Z,9.34
2024-03-12T23:27:00.434Z,9.10
2024-03-12T23:29:26.808Z,9.21
2024-03-12T23:31:54.844Z,8.80
2024-03-12T23:34:22.259Z,8.80
2024-03-12T23:36:48.844Z,8.86
2024-03-12T23:39:16.390Z,9.21
2024-03-12T23:41:42.854Z,8.65
2024-03-12T23:44:13.812Z,8.77
2024-03-12T23:46:40.153Z,9.01
2024-03-12T23:49:07.671Z,10.03
2024-03-12T23:51:34.423Z,9.31
2024-03-12T23:54:01.411Z,9.18
2024-03-12T23:56:27.757Z,9.81
2024-03-12T23:58:55.401Z,10.22
